Time;durP1;ratioP1;P1;durP2;ratioP2;P2;SDS_P1;SDS_P2;PMS_P1;PMS_P2;Temp;Humidity;BMP_temperature;BMP_pressure;BME280_temperature;BME280_humidity;BME280_pressure;Samples;Min_cycle;Max_cycle;Signal;HPM_P1;HPM_P2
2020/12/05 00:01:27;;;;;;;58.03;35.07;;;;;;;;;;5014808;28;20180;-78
2020/12/05 00:03:52;;;;;;;40.83;25.07;;;;;;;;;;5014788;28;20218;-79
2020/12/05 00:06:24;;;;;;;44.37;26.13;;;;;;;;;;5014193;28;20165;-78
2020/12/05 00:08:50;;;;;;;45.73;26.43;;;;;;;;;;5014287;28;20174;-79
2020/12/05 00:11:15;;;;;;;47.63;28.83;;;;;;;;;;5014376;28;20523;-79
2020/12/05 00:13:40;;;;;;;40.70;25.93;;;;;;;;;;5014113;28;20173;-78
2020/12/05 00:16:05;;;;;;;38.43;24.17;;;;;;;;;;5014302;28;20170;-78
2020/12/05 00:18:31;;;;;;;43.67;26.97;;;;;;;;;;5014394;28;20196;-79
2020/12/05 00:20:56;;;;;;;42.70;27.10;;;;;;;;;;5014156;28;20659;-78
2020/12/05 00:23:21;;;;;;;43.70;26.23;;;;;;;;;;5014433;28;20176;-79
2020/12/05 00:25:47;;;;;;;44.03;26.00;;;;;;;;;;5014244;28;20192;-79
2020/12/05 00:28:12;;;;;;;42.43;25.07;;;;;;;;;;5013882;28;20219;-78
2020/12/05 00:30:37;;;;;;;42.67;26.40;;;;;;;;;;5013896;28;20181;-79
2020/12/05 00:33:03;;;;;;;44.67;26.90;;;;;;;;;;5014154;28;20264;-79
2020/12/05 00:35:28;;;;;;;48.33;29.53;;;;;;;;;;5014231;28;20181;-78
2020/12/05 00:37:54;;;;;;;51.93;28.93;;;;;;;;;;5014103;28;20169;-78
2020/12/05 00:40:20;;;;;;;54.87;31.13;;;;;;;;;;5013711;28;20664;-79
2020/12/05 00:42:45;;;;;;;50.53;30.33;;;;;;;;;;5014058;28;20287;-78
2020/12/05 00:45:10;;;;;;;57.43;30.70;;;;;;;;;;5013974;28;20653;-78
2020/12/05 00:47:35;;;;;;;42.13;26.07;;;;;;;;;;5013959;28;20180;-79
2020/12/05 00:50:01;;;;;;;44.17;28.77;;;;;;;;;;5014009;28;20510;-79
2020/12/05 00:52:26;;;;;;;41.57;27.40;;;;;;;;;;5013732;28;20228;-79
2020/12/05 00:54:51;;;;;;;36.47;23.70;;;;;;;;;;5013706;28;20177;-79
2020/12/05 00:57:17;;;;;;;37.87;24.30;;;;;;;;;;5013606;28;20243;-79
2020/12/05 00:59:42;;;;;;;38.97;25.57;;;;;;;;;;5014174;28;20642;-79
2020/12/05 01:02:07;;;;;;;42.73;26.50;;;;;;;;;;5014113;28;20200;-79
2020/12/05 01:04:32;;;;;;;47.40;30.33;;;;;;;;;;5014323;28;20173;-79
2020/12/05 01:06:58;;;;;;;41.13;24.50;;;;;;;;;;5013851;28;20172;-79
2020/12/05 01:09:23;;;;;;;46.03;27.57;;;;;;;;;;5013820;28;20181;-79
2020/12/05 01:11:48;;;;;;;35.10;22.77;;;;;;;;;;5013796;28;20613;-79
2020/12/05 01:14:14;;;;;;;39.23;23.97;;;;;;;;;;5013460;28;20165;-79
2020/12/05 01:16:39;;;;;;;33.53;20.67;;;;;;;;;;5014096;28;20170;-79
2020/12/05 01:19:04;;;;;;;39.93;22.03;;;;;;;;;;5013690;28;20653;-79
2020/12/05 01:21:30;;;;;;;35.10;23.17;;;;;;;;;;5016751;28;20174;-79
2020/12/05 01:23:55;;;;;;;37.70;24.47;;;;;;;;;;5017751;28;20264;-79
2020/12/05 01:26:21;;;;;;;32.50;21.40;;;;;;;;;;5017109;28;20196;-79
2020/12/05 01:28:46;;;;;;;27.80;17.97;;;;;;;;;;5017064;28;20181;-79
2020/12/05 01:31:12;;;;;;;26.63;16.60;;;;;;;;;;5017040;28;20181;-79
2020/12/05 01:33:37;;;;;;;25.83;17.63;;;;;;;;;;5017573;28;20181;-79
2020/12/05 01:36:03;;;;;;;25.73;15.87;;;;;;;;;;5017295;28;20178;-79
2020/12/05 01:38:29;;;;;;;26.57;17.23;;;;;;;;;;5017505;28;20256;-79
2020/12/05 01:40:59;;;;;;;33.10;20.93;;;;;;;;;;5016793;28;20280;-79
2020/12/05 01:43:30;;;;;;;30.03;18.63;;;;;;;;;;5017180;28;20578;-79
2020/12/05 01:45:58;;;;;;;34.20;20.07;;;;;;;;;;5017070;28;20692;-79
2020/12/05 01:48:23;;;;;;;40.77;23.20;;;;;;;;;;5016763;28;20169;-79
2020/12/05 01:50:48;;;;;;;30.27;19.27;;;;;;;;;;5016745;28;20177;-79
2020/12/05 01:53:14;;;;;;;30.97;19.27;;;;;;;;;;5038517;28;20160;-77
2020/12/05 01:55:49;;;;;;;30.00;19.20;;;;;;;;;;5040766;28;20169;-77
2020/12/05 01:58:15;;;;;;;27.57;17.13;;;;;;;;;;5036029;28;20233;-78
2020/12/05 02:00:42;;;;;;;26.00;16.77;;;;;;;;;;5020010;28;20370;-78
2020/12/05 02:03:07;;;;;;;26.57;18.37;;;;;;;;;;5019466;28;20170;-79
2020/12/05 02:05:38;;;;;;;29.33;18.37;;;;;;;;;;5017137;28;20222;-79
2020/12/05 02:08:09;;;;;;;26.47;18.27;;;;;;;;;;5016413;28;20259;-78
2020/12/05 02:10:38;;;;;;;27.67;18.50;;;;;;;;;;5016876;28;20475;-78
2020/12/05 02:13:07;;;;;;;28.17;18.73;;;;;;;;;;5016514;28;20636;-79
2020/12/05 02:15:33;;;;;;;31.50;20.33;;;;;;;;;;5016428;28;20256;-79
2020/12/05 02:18:03;;;;;;;28.57;19.90;;;;;;;;;;5016183;28;20185;-79
2020/12/05 02:20:29;;;;;;;29.53;19.07;;;;;;;;;;5016599;28;20197;-79
2020/12/05 02:22:55;;;;;;;25.90;17.87;;;;;;;;;;5016365;28;20173;-79
2020/12/05 02:25:20;;;;;;;26.70;17.53;;;;;;;;;;5016516;28;20196;-79
2020/12/05 02:27:46;;;;;;;27.47;17.63;;;;;;;;;;5016240;28;20252;-79
2020/12/05 02:30:11;;;;;;;29.17;17.97;;;;;;;;;;5016492;28;20183;-79
2020/12/05 02:32:37;;;;;;;28.80;18.47;;;;;;;;;;5015193;28;20231;-79
2020/12/05 02:35:03;;;;;;;25.73;17.50;;;;;;;;;;5015829;28;20173;-79
2020/12/05 02:37:29;;;;;;;28.53;19.13;;;;;;;;;;5016046;28;20169;-79
2020/12/05 02:39:55;;;;;;;35.70;22.10;;;;;;;;;;5016247;28;20254;-79
2020/12/05 02:42:21;;;;;;;28.63;19.23;;;;;;;;;;5015770;28;20624;-79
2020/12/05 02:44:47;;;;;;;26.83;18.23;;;;;;;;;;5016293;28;20227;-78
2020/12/05 02:47:13;;;;;;;29.20;18.27;;;;;;;;;;5015897;28;20188;-79
2020/12/05 02:49:38;;;;;;;28.47;18.60;;;;;;;;;;5016117;28;20177;-78
2020/12/05 02:52:03;;;;;;;28.83;18.50;;;;;;;;;;5016144;28;20596;-79
2020/12/05 02:54:31;;;;;;;26.07;17.63;;;;;;;;;;5015460;28;20257;-78
2020/12/05 02:56:56;;;;;;;27.57;19.03;;;;;;;;;;5015614;28;20231;-79
2020/12/05 02:59:22;;;;;;;26.60;18.50;;;;;;;;;;5015942;28;20197;-79
2020/12/05 03:01:47;;;;;;;27.57;19.00;;;;;;;;;;5015621;28;20593;-79
2020/12/05 03:04:12;;;;;;;27.67;17.83;;;;;;;;;;5015870;28;20172;-79
2020/12/05 03:06:37;;;;;;;29.20;18.97;;;;;;;;;;5015260;28;20239;-79
2020/12/05 03:09:03;;;;;;;30.00;17.97;;;;;;;;;;5015271;28;20221;-79
2020/12/05 03:11:28;;;;;;;26.33;17.10;;;;;;;;;;5015440;28;20189;-79
2020/12/05 03:13:53;;;;;;;27.47;17.63;;;;;;;;;;5015131;28;20200;-79
2020/12/05 03:16:19;;;;;;;26.10;17.57;;;;;;;;;;5015059;28;20166;-79
2020/12/05 03:18:44;;;;;;;26.33;17.80;;;;;;;;;;5015583;28;20165;-79
2020/12/05 03:21:09;;;;;;;27.60;18.10;;;;;;;;;;5015340;28;20633;-79
2020/12/05 03:23:34;;;;;;;27.87;18.43;;;;;;;;;;5014965;28;20161;-79
2020/12/05 03:26:00;;;;;;;27.47;18.60;;;;;;;;;;5014916;28;20212;-79
2020/12/05 03:28:25;;;;;;;28.20;18.20;;;;;;;;;;5015030;28;20173;-79
2020/12/05 03:30:51;;;;;;;30.07;18.93;;;;;;;;;;5015225;28;20177;-79
2020/12/05 03:33:16;;;;;;;26.90;19.03;;;;;;;;;;5015633;28;20224;-79
2020/12/05 03:35:42;;;;;;;23.97;17.07;;;;;;;;;;5014918;28;20220;-79
2020/12/05 03:38:07;;;;;;;26.10;16.27;;;;;;;;;;5015260;28;20616;-79
2020/12/05 03:40:32;;;;;;;23.03;15.60;;;;;;;;;;5014830;28;20203;-79
2020/12/05 03:42:58;;;;;;;22.80;16.13;;;;;;;;;;5014711;28;20500;-79
2020/12/05 03:45:23;;;;;;;25.60;16.40;;;;;;;;;;5015077;28;20169;-79
2020/12/05 03:47:49;;;;;;;25.77;16.53;;;;;;;;;;5014464;28;20179;-79
2020/12/05 03:50:14;;;;;;;26.10;16.70;;;;;;;;;;5014695;28;20177;-79
2020/12/05 03:52:39;;;;;;;23.77;15.93;;;;;;;;;;5014711;28;20175;-79
2020/12/05 03:55:05;;;;;;;24.03;16.20;;;;;;;;;;5014410;28;20192;-79
2020/12/05 03:57:30;;;;;;;21.37;14.60;;;;;;;;;;5014228;28;20375;-79
2020/12/05 03:59:55;;;;;;;23.37;15.90;;;;;;;;;;5014325;28;20207;-79
2020/12/05 04:02:20;;;;;;;22.00;15.80;;;;;;;;;;5014527;28;20177;-79
2020/12/05 04:04:46;;;;;;;25.57;17.47;;;;;;;;;;5014389;28;20255;-79
2020/12/05 04:07:11;;;;;;;22.23;16.53;;;;;;;;;;5014536;28;20624;-79
2020/12/05 04:09:36;;;;;;;22.97;16.30;;;;;;;;;;5014498;28;20177;-79
2020/12/05 04:12:02;;;;;;;24.63;16.17;;;;;;;;;;5014154;28;20545;-79
2020/12/05 04:14:27;;;;;;;27.50;16.60;;;;;;;;;;5014681;28;20169;-79
2020/12/05 04:16:52;;;;;;;25.90;16.80;;;;;;;;;;5014661;28;20564;-79
2020/12/05 04:19:18;;;;;;;23.23;16.50;;;;;;;;;;5013975;28;20199;-79
2020/12/05 04:21:43;;;;;;;27.83;18.47;;;;;;;;;;5014931;28;20193;-79
2020/12/05 04:24:08;;;;;;;25.67;16.67;;;;;;;;;;5016121;28;20184;-79
2020/12/05 04:26:34;;;;;;;20.40;14.13;;;;;;;;;;5016583;28;20189;-79
2020/12/05 04:28:59;;;;;;;22.07;14.23;;;;;;;;;;5013889;28;20632;-79
2020/12/05 04:31:24;;;;;;;23.73;15.27;;;;;;;;;;5013928;28;20180;-79
2020/12/05 04:33:49;;;;;;;21.80;16.03;;;;;;;;;;5014168;28;20176;-79
2020/12/05 04:36:15;;;;;;;20.03;14.27;;;;;;;;;;5014628;28;20609;-79
2020/12/05 04:38:40;;;;;;;23.70;16.57;;;;;;;;;;5013816;28;20165;-79
2020/12/05 04:41:05;;;;;;;23.63;16.27;;;;;;;;;;5013755;28;20678;-79
2020/12/05 04:43:33;;;;;;;23.23;15.57;;;;;;;;;;5013824;28;20239;-79
2020/12/05 04:45:58;;;;;;;23.77;16.03;;;;;;;;;;5013688;28;20595;-79
2020/12/05 04:48:24;;;;;;;26.03;17.07;;;;;;;;;;5014088;28;20173;-79
2020/12/05 04:50:50;;;;;;;24.33;16.60;;;;;;;;;;5014098;28;20181;-79
2020/12/05 04:53:19;;;;;;;25.33;16.23;;;;;;;;;;5013690;28;20165;-79
2020/12/05 04:55:45;;;;;;;23.40;15.97;;;;;;;;;;5015937;28;20307;-79
2020/12/05 04:58:28;;;;;;;21.97;15.27;;;;;;;;;;5018398;28;20259;-79
2020/12/05 05:00:57;;;;;;;21.37;15.63;;;;;;;;;;5018672;28;20239;-79
2020/12/05 05:03:23;;;;;;;20.90;15.67;;;;;;;;;;5018076;28;20173;-79
2020/12/05 05:05:49;;;;;;;24.57;16.97;;;;;;;;;;5017524;28;20628;-79
2020/12/05 05:08:15;;;;;;;23.07;16.40;;;;;;;;;;5017488;28;20173;-79
2020/12/05 05:10:41;;;;;;;24.10;16.40;;;;;;;;;;5018266;28;20509;-79
2020/12/05 05:13:13;;;;;;;24.57;17.00;;;;;;;;;;5017865;28;20178;-79
2020/12/05 05:15:39;;;;;;;26.07;17.23;;;;;;;;;;5017918;28;20170;-79
2020/12/05 05:18:04;;;;;;;25.00;17.30;;;;;;;;;;5017550;28;20169;-79
2020/12/05 05:20:35;;;;;;;23.33;17.13;;;;;;;;;;5017430;28;20208;-79
2020/12/05 05:23:29;;;;;;;27.90;19.07;;;;;;;;;;5017892;28;20544;-79
2020/12/05 05:25:55;;;;;;;24.70;15.77;;;;;;;;;;5016845;28;20205;-79
2020/12/05 05:28:22;;;;;;;23.33;15.77;;;;;;;;;;5017690;28;20257;-79
2020/12/05 05:31:00;;;;;;;22.30;16.40;;;;;;;;;;5017401;28;20176;-79
2020/12/05 05:33:26;;;;;;;23.10;15.63;;;;;;;;;;5017019;28;20624;-79
2020/12/05 05:35:51;;;;;;;24.20;17.40;;;;;;;;;;5016990;28;20187;-79
2020/12/05 05:38:23;;;;;;;22.97;16.47;;;;;;;;;;5016917;28;20177;-79
2020/12/05 05:40:49;;;;;;;23.63;16.37;;;;;;;;;;5017106;28;20212;-79
2020/12/05 05:43:18;;;;;;;23.57;16.20;;;;;;;;;;5017425;28;20177;-79
2020/12/05 05:45:43;;;;;;;22.33;15.60;;;;;;;;;;5017106;28;20619;-79
2020/12/05 05:48:09;;;;;;;25.60;16.37;;;;;;;;;;5016809;28;20197;-79
2020/12/05 05:50:36;;;;;;;23.17;16.13;;;;;;;;;;5017254;28;20521;-79
2020/12/05 05:53:01;;;;;;;25.17;16.60;;;;;;;;;;5017012;28;20173;-79
2020/12/05 05:55:49;;;;;;;27.97;16.53;;;;;;;;;;5016974;28;20176;-79
2020/12/05 05:58:15;;;;;;;21.87;14.93;;;;;;;;;;5017219;28;20236;-79
2020/12/05 06:00:41;;;;;;;31.10;18.93;;;;;;;;;;5016447;28;20200;-79
2020/12/05 06:03:17;;;;;;;26.40;16.53;;;;;;;;;;5017037;28;20173;-79
2020/12/05 06:05:43;;;;;;;31.80;21.07;;;;;;;;;;5016349;28;20200;-79
2020/12/05 06:08:11;;;;;;;30.00;19.87;;;;;;;;;;5016426;28;20582;-79
2020/12/05 06:10:36;;;;;;;25.07;16.27;;;;;;;;;;5016359;28;20256;-79
2020/12/05 06:13:01;;;;;;;27.50;18.40;;;;;;;;;;5016547;28;20251;-79
2020/12/05 06:15:27;;;;;;;29.07;19.17;;;;;;;;;;5016510;28;20228;-79
2020/12/05 06:17:57;;;;;;;26.87;17.17;;;;;;;;;;5016972;28;20231;-79
2020/12/05 06:20:24;;;;;;;26.33;18.60;;;;;;;;;;5016462;28;20747;-79
2020/12/05 06:22:51;;;;;;;26.37;17.90;;;;;;;;;;5016416;28;20176;-79
2020/12/05 06:25:17;;;;;;;26.17;17.83;;;;;;;;;;5016223;28;20559;-79
2020/12/05 06:27:57;;;;;;;26.53;17.73;;;;;;;;;;5016574;28;20683;-79
2020/12/05 06:30:22;;;;;;;26.47;18.37;;;;;;;;;;5016338;28;20165;-79
2020/12/05 06:32:48;;;;;;;29.17;18.80;;;;;;;;;;5016719;28;20224;-79
2020/12/05 06:35:19;;;;;;;28.13;19.60;;;;;;;;;;5015842;28;20252;-79
2020/12/05 06:37:45;;;;;;;26.77;18.37;;;;;;;;;;5025907;28;20176;-78
2020/12/05 06:40:10;;;;;;;26.63;18.23;;;;;;;;;;5039057;28;20188;-78
2020/12/05 06:42:40;;;;;;;31.40;21.37;;;;;;;;;;5039383;28;20170;-77
2020/12/05 06:45:05;;;;;;;21.73;16.30;;;;;;;;;;5022230;28;20173;-78
2020/12/05 06:47:31;;;;;;;26.03;18.73;;;;;;;;;;5018841;28;20227;-79
2020/12/05 06:49:56;;;;;;;25.23;16.97;;;;;;;;;;5017539;28;20272;-79
2020/12/05 06:52:21;;;;;;;30.87;20.83;;;;;;;;;;5015793;28;20208;-79
2020/12/05 06:54:53;;;;;;;40.77;27.60;;;;;;;;;;5015836;28;20613;-78
2020/12/05 06:57:19;;;;;;;46.33;28.60;;;;;;;;;;5015160;28;20571;-78
2020/12/05 06:59:45;;;;;;;29.80;19.20;;;;;;;;;;5015956;28;20193;-78
2020/12/05 07:02:28;;;;;;;37.47;24.97;;;;;;;;;;5015633;28;20176;-79
2020/12/05 07:05:12;;;;;;;32.40;21.13;;;;;;;;;;5016072;28;20207;-79
2020/12/05 07:07:38;;;;;;;33.27;23.40;;;;;;;;;;5015514;28;20199;-78
2020/12/05 07:10:03;;;;;;;29.93;20.60;;;;;;;;;;5015183;28;20260;-79
2020/12/05 07:12:34;;;;;;;35.20;25.07;;;;;;;;;;5015491;28;20258;-78
2020/12/05 07:15:18;;;;;;;33.57;23.00;;;;;;;;;;5015377;28;20169;-79
2020/12/05 07:17:43;;;;;;;29.97;19.93;;;;;;;;;;5014643;28;20176;-79
2020/12/05 07:20:08;;;;;;;32.83;22.50;;;;;;;;;;5015361;28;20205;-79
2020/12/05 07:22:34;;;;;;;37.17;25.43;;;;;;;;;;5015838;28;20515;-79
2020/12/05 07:24:59;;;;;;;34.00;22.70;;;;;;;;;;5015131;28;20177;-79
2020/12/05 07:27:25;;;;;;;28.10;19.47;;;;;;;;;;5014930;28;20173;-79
2020/12/05 07:29:53;;;;;;;26.90;19.87;;;;;;;;;;5015413;28;20177;-79
2020/12/05 07:32:19;;;;;;;32.60;21.53;;;;;;;;;;5015375;28;20227;-79
2020/12/05 07:34:44;;;;;;;29.37;20.03;;;;;;;;;;5015307;28;20169;-79
2020/12/05 07:37:10;;;;;;;31.63;22.10;;;;;;;;;;5015026;28;20173;-79
2020/12/05 07:39:44;;;;;;;29.40;19.90;;;;;;;;;;5014908;28;20643;-79
2020/12/05 07:42:09;;;;;;;30.10;20.60;;;;;;;;;;5015414;28;20223;-79
2020/12/05 07:44:34;;;;;;;28.17;21.30;;;;;;;;;;5014878;28;20169;-79
2020/12/05 07:47:00;;;;;;;27.77;19.20;;;;;;;;;;5014937;28;20192;-79
2020/12/05 07:49:25;;;;;;;27.50;18.50;;;;;;;;;;5014557;28;20252;-79
2020/12/05 07:51:51;;;;;;;35.40;24.10;;;;;;;;;;5014690;28;20173;-79
2020/12/05 07:54:16;;;;;;;30.00;20.00;;;;;;;;;;5014943;28;20184;-79
2020/12/05 07:56:41;;;;;;;44.47;29.10;;;;;;;;;;5014163;28;20650;-79
2020/12/05 07:59:07;;;;;;;59.93;35.63;;;;;;;;;;5014564;28;20169;-80
2020/12/05 08:01:51;;;;;;;33.73;24.20;;;;;;;;;;5015179;28;20214;-79
2020/12/05 08:04:24;;;;;;;35.07;25.13;;;;;;;;;;5014859;28;20169;-79
2020/12/05 08:07:09;;;;;;;38.20;24.37;;;;;;;;;;5014319;28;20164;-79
2020/12/05 08:09:35;;;;;;;34.33;23.17;;;;;;;;;;5013564;28;20192;-79
2020/12/05 08:12:02;;;;;;;31.17;19.23;;;;;;;;;;5014593;28;20200;-79
2020/12/05 08:14:31;;;;;;;27.13;19.77;;;;;;;;;;5014446;28;20636;-79
2020/12/05 08:16:59;;;;;;;31.77;22.57;;;;;;;;;;5014085;28;20531;-79
2020/12/05 08:19:24;;;;;;;50.07;34.33;;;;;;;;;;5014506;28;20211;-79
2020/12/05 08:21:51;;;;;;;33.23;23.17;;;;;;;;;;5013944;28;20587;-79
2020/12/05 08:24:16;;;;;;;55.37;32.60;;;;;;;;;;5014232;28;20616;-79
2020/12/05 08:26:41;;;;;;;43.90;27.83;;;;;;;;;;5013892;28;20192;-79
2020/12/05 08:29:07;;;;;;;27.60;18.80;;;;;;;;;;5013851;28;20177;-79
2020/12/05 08:31:39;;;;;;;43.03;26.17;;;;;;;;;;5013939;28;20638;-79
2020/12/05 08:34:04;;;;;;;66.27;38.07;;;;;;;;;;5013960;28;20619;-79
2020/12/05 08:36:34;;;;;;;32.03;20.33;;;;;;;;;;5013784;28;20169;-79
2020/12/05 08:39:07;;;;;;;28.27;19.87;;;;;;;;;;5014576;28;20169;-79
2020/12/05 08:41:40;;;;;;;27.00;18.50;;;;;;;;;;5014683;28;20173;-80
2020/12/05 08:44:09;;;;;;;29.60;21.00;;;;;;;;;;5017329;28;20259;-79
2020/12/05 08:46:35;;;;;;;30.50;21.10;;;;;;;;;;5021653;28;20188;-79
2020/12/05 08:49:12;;;;;;;30.10;21.77;;;;;;;;;;5034241;28;20164;-79
2020/12/05 08:51:37;;;;;;;24.97;18.57;;;;;;;;;;5034118;28;20157;-78
2020/12/05 08:54:03;;;;;;;28.53;19.83;;;;;;;;;;5033379;28;20172;-78
2020/12/05 08:56:29;;;;;;;27.63;20.07;;;;;;;;;;5034017;28;20281;-79
2020/12/05 08:58:54;;;;;;;31.00;22.70;;;;;;;;;;5033188;28;20239;-79
2020/12/05 09:01:19;;;;;;;25.67;18.43;;;;;;;;;;5033506;28;20270;-79
2020/12/05 09:03:44;;;;;;;29.77;21.33;;;;;;;;;;5033221;28;20169;-79
2020/12/05 09:06:10;;;;;;;27.73;20.57;;;;;;;;;;5034323;28;20263;-79
2020/12/05 09:08:35;;;;;;;27.77;18.30;;;;;;;;;;5026689;28;20172;-79
2020/12/05 09:11:00;;;;;;;23.03;16.87;;;;;;;;;;5022964;28;20166;-80
2020/12/05 09:13:26;;;;;;;25.93;18.90;;;;;;;;;;5023311;28;20179;-79
2020/12/05 09:15:55;;;;;;;31.17;22.10;;;;;;;;;;5023433;28;20184;-79
2020/12/05 09:18:21;;;;;;;30.50;21.53;;;;;;;;;;5023195;28;20859;-80
2020/12/05 09:20:46;;;;;;;29.67;21.80;;;;;;;;;;5033475;28;20323;-79
2020/12/05 09:23:11;;;;;;;30.20;17.67;;;;;;;;;;5033624;28;20227;-79
2020/12/05 09:25:38;;;;;;;21.97;16.03;;;;;;;;;;5033333;28;20254;-79
2020/12/05 09:28:13;;;;;;;21.13;15.93;;;;;;;;;;5033385;28;20515;-79
2020/12/05 09:30:39;;;;;;;19.27;15.87;;;;;;;;;;5033595;28;20593;-80
2020/12/05 09:33:17;;;;;;;20.83;16.13;;;;;;;;;;5033851;28;20169;-80
2020/12/05 09:35:43;;;;;;;20.43;16.30;;;;;;;;;;5033277;28;20165;-80
2020/12/05 09:38:09;;;;;;;22.00;18.17;;;;;;;;;;5033229;28;20175;-80
2020/12/05 09:40:34;;;;;;;21.70;17.50;;;;;;;;;;5033170;28;20259;-80
2020/12/05 09:43:00;;;;;;;18.63;15.90;;;;;;;;;;5036662;28;20173;-80
2020/12/05 09:45:25;;;;;;;20.27;17.20;;;;;;;;;;5036959;28;20742;-80
2020/12/05 09:47:51;;;;;;;22.37;16.93;;;;;;;;;;5032314;28;20172;-80
2020/12/05 09:50:16;;;;;;;23.70;18.07;;;;;;;;;;5037072;28;20177;-81
2020/12/05 09:52:42;;;;;;;19.37;16.97;;;;;;;;;;5035416;28;20175;-80
2020/12/05 09:55:08;;;;;;;22.87;18.13;;;;;;;;;;5034393;28;20535;-80
2020/12/05 09:57:33;;;;;;;22.93;18.37;;;;;;;;;;5034200;28;20686;-81
2020/12/05 09:59:59;;;;;;;31.87;21.93;;;;;;;;;;5033627;28;20669;-80
2020/12/05 10:02:24;;;;;;;34.30;22.93;;;;;;;;;;5033421;28;20173;-81
2020/12/05 10:04:49;;;;;;;42.93;27.17;;;;;;;;;;5034315;28;20183;-81
2020/12/05 10:07:14;;;;;;;35.73;24.57;;;;;;;;;;5033666;28;20168;-80
2020/12/05 10:09:40;;;;;;;33.03;22.53;;;;;;;;;;5030687;28;20192;-80
2020/12/05 10:12:05;;;;;;;24.57;18.67;;;;;;;;;;5031925;28;20184;-80
2020/12/05 10:14:30;;;;;;;21.07;16.27;;;;;;;;;;5032649;28;20188;-80
2020/12/05 10:16:57;;;;;;;20.40;16.27;;;;;;;;;;5033552;28;20607;-80
2020/12/05 10:19:23;;;;;;;32.83;22.70;;;;;;;;;;5033173;28;20675;-80
2020/12/05 10:21:49;;;;;;;20.63;16.47;;;;;;;;;;5033166;28;20168;-81
2020/12/05 10:24:15;;;;;;;23.77;18.30;;;;;;;;;;5033311;28;20287;-80
2020/12/05 10:26:40;;;;;;;22.60;17.80;;;;;;;;;;5032580;28;20211;-80
2020/12/05 10:29:05;;;;;;;26.67;18.73;;;;;;;;;;5034957;28;20169;-81
2020/12/05 10:31:31;;;;;;;20.33;15.33;;;;;;;;;;5035521;28;20650;-79
2020/12/05 10:33:56;;;;;;;33.23;20.63;;;;;;;;;;5034393;28;20643;-80
2020/12/05 10:36:21;;;;;;;27.43;20.50;;;;;;;;;;5032822;28;20260;-83
2020/12/05 10:38:47;;;;;;;26.70;18.93;;;;;;;;;;5031864;28;20176;-80
2020/12/05 10:41:12;;;;;;;23.23;17.47;;;;;;;;;;5033137;28;20278;-79
2020/12/05 10:43:38;;;;;;;32.03;22.97;;;;;;;;;;5033174;28;20165;-79
2020/12/05 10:46:03;;;;;;;32.33;21.73;;;;;;;;;;5028253;28;20188;-80
2020/12/05 10:48:28;;;;;;;32.67;22.40;;;;;;;;;;5032837;28;20687;-80
2020/12/05 10:50:57;;;;;;;32.23;19.63;;;;;;;;;;5033233;28;20165;-81
2020/12/05 10:53:23;;;;;;;31.77;20.50;;;;;;;;;;5031332;28;20165;-80
2020/12/05 10:55:48;;;;;;;24.50;18.40;;;;;;;;;;5032900;28;20164;-79
2020/12/05 10:58:13;;;;;;;24.07;16.77;;;;;;;;;;5032257;28;20614;-79
2020/12/05 11:00:38;;;;;;;28.10;21.37;;;;;;;;;;5033064;28;20214;-80
2020/12/05 11:03:04;;;;;;;23.30;16.13;;;;;;;;;;5032642;28;20504;-80
2020/12/05 11:05:29;;;;;;;27.97;20.00;;;;;;;;;;5032293;28;20219;-80
2020/12/05 11:07:57;;;;;;;24.83;18.10;;;;;;;;;;5032158;28;20172;-81
2020/12/05 11:10:22;;;;;;;24.50;17.43;;;;;;;;;;5032970;28;20528;-80
2020/12/05 11:12:47;;;;;;;22.77;17.57;;;;;;;;;;5032393;28;20173;-80
2020/12/05 11:15:13;;;;;;;25.57;18.50;;;;;;;;;;5031323;28;20193;-81
2020/12/05 11:17:38;;;;;;;20.77;15.80;;;;;;;;;;5032718;28;20702;-79
2020/12/05 11:20:03;;;;;;;26.43;18.63;;;;;;;;;;5032739;28;20196;-80
2020/12/05 11:22:29;;;;;;;24.93;18.50;;;;;;;;;;5032260;28;20199;-80
2020/12/05 11:24:54;;;;;;;19.03;15.47;;;;;;;;;;5031513;28;20311;-79
2020/12/05 11:27:19;;;;;;;20.30;16.17;;;;;;;;;;5032002;28;20192;-80
2020/12/05 11:29:45;;;;;;;27.17;20.33;;;;;;;;;;5031825;28;20219;-81
2020/12/05 11:32:10;;;;;;;22.57;17.40;;;;;;;;;;5032492;28;20200;-81
2020/12/05 11:34:35;;;;;;;20.47;16.57;;;;;;;;;;5032229;28;20535;-80
2020/12/05 11:37:00;;;;;;;17.33;13.10;;;;;;;;;;5032071;28;20324;-81
2020/12/05 11:39:26;;;;;;;17.57;14.23;;;;;;;;;;5031849;28;20207;-80
2020/12/05 11:41:51;;;;;;;23.17;18.50;;;;;;;;;;5032246;28;20255;-80
2020/12/05 11:44:16;;;;;;;20.73;16.47;;;;;;;;;;5031725;28;20180;-80
2020/12/05 11:46:42;;;;;;;24.27;18.63;;;;;;;;;;5032303;28;20869;-80
2020/12/05 11:49:07;;;;;;;20.73;15.73;;;;;;;;;;5031583;28;20315;-81
2020/12/05 11:51:32;;;;;;;18.23;15.20;;;;;;;;;;5030973;28;20720;-80
2020/12/05 11:53:57;;;;;;;20.10;15.33;;;;;;;;;;5034437;28;20207;-80
2020/12/05 11:56:23;;;;;;;19.50;15.63;;;;;;;;;;5034601;28;20191;-81
2020/12/05 11:58:48;;;;;;;31.43;22.80;;;;;;;;;;5033479;28;20258;-81
2020/12/05 12:01:13;;;;;;;21.07;16.00;;;;;;;;;;5031372;28;20204;-80
2020/12/05 12:03:40;;;;;;;21.23;16.43;;;;;;;;;;5031398;28;20607;-81
2020/12/05 12:06:06;;;;;;;18.20;15.03;;;;;;;;;;5031328;28;20260;-80
2020/12/05 12:08:33;;;;;;;17.57;14.53;;;;;;;;;;5031433;28;20199;-81
2020/12/05 12:10:58;;;;;;;23.50;18.67;;;;;;;;;;5031191;28;20180;-81
2020/12/05 12:13:24;;;;;;;18.90;14.30;;;;;;;;;;5030049;28;20226;-81
2020/12/05 12:15:49;;;;;;;30.97;22.80;;;;;;;;;;5031673;28;20602;-80
2020/12/05 12:18:14;;;;;;;22.00;17.83;;;;;;;;;;5030976;28;20610;-81
2020/12/05 12:20:40;;;;;;;37.50;27.47;;;;;;;;;;5031087;28;20196;-81
2020/12/05 12:23:05;;;;;;;44.70;30.97;;;;;;;;;;5031129;28;20252;-80
2020/12/05 12:25:30;;;;;;;34.67;27.23;;;;;;;;;;5030849;28;20238;-80
2020/12/05 12:27:55;;;;;;;30.63;23.10;;;;;;;;;;5030842;28;20168;-81
2020/12/05 12:30:21;;;;;;;33.97;27.40;;;;;;;;;;5031345;28;20249;-80
2020/12/05 12:32:46;;;;;;;31.13;22.27;;;;;;;;;;5030881;28;20233;-80
2020/12/05 12:35:11;;;;;;;24.23;19.37;;;;;;;;;;5030911;28;20202;-80
2020/12/05 12:37:36;;;;;;;21.47;17.97;;;;;;;;;;5031349;28;20187;-80
2020/12/05 12:40:02;;;;;;;19.17;15.77;;;;;;;;;;5030382;28;20671;-80
2020/12/05 12:42:28;;;;;;;47.73;29.87;;;;;;;;;;5030784;28;20184;-80
2020/12/05 12:44:56;;;;;;;22.97;15.83;;;;;;;;;;5031221;28;20173;-80
2020/12/05 12:49:49;;;;;;;21.50;15.83;;;;;;;;;;5030747;28;20213;-80
2020/12/05 12:52:14;;;;;;;20.87;16.20;;;;;;;;;;5030967;28;20620;-80
2020/12/05 12:54:40;;;;;;;25.07;19.53;;;;;;;;;;5030793;28;20175;-81
2020/12/05 12:57:05;;;;;;;18.83;15.10;;;;;;;;;;5030650;28;20709;-81
2020/12/05 12:59:31;;;;;;;22.97;18.27;;;;;;;;;;5030697;28;20188;-79
2020/12/05 13:01:57;;;;;;;20.90;15.43;;;;;;;;;;5030677;28;20682;-80
2020/12/05 13:04:23;;;;;;;27.63;20.00;;;;;;;;;;5031093;28;20243;-81
2020/12/05 13:06:52;;;;;;;31.50;23.73;;;;;;;;;;5031021;28;20177;-80
2020/12/05 13:09:17;;;;;;;34.87;26.53;;;;;;;;;;5030853;28;20264;-81
2020/12/05 13:11:43;;;;;;;28.60;20.20;;;;;;;;;;5031141;28;20605;-81
2020/12/05 13:14:08;;;;;;;19.10;15.17;;;;;;;;;;5030473;28;20184;-80
2020/12/05 13:16:33;;;;;;;32.77;23.33;;;;;;;;;;5032354;28;20177;-80
2020/12/05 13:18:58;;;;;;;29.07;20.07;;;;;;;;;;5034880;28;20583;-80
2020/12/05 13:21:24;;;;;;;30.43;23.97;;;;;;;;;;5034520;28;20303;-79
2020/12/05 13:23:49;;;;;;;31.93;24.83;;;;;;;;;;5034887;28;20177;-80
2020/12/05 13:26:19;;;;;;;33.47;24.30;;;;;;;;;;5034656;28;20638;-79
2020/12/05 13:28:44;;;;;;;25.77;18.67;;;;;;;;;;5034753;28;20641;-79
2020/12/05 13:31:10;;;;;;;28.27;20.50;;;;;;;;;;5034295;28;20191;-80
2020/12/05 13:33:35;;;;;;;33.10;23.17;;;;;;;;;;5034054;28;20176;-80
2020/12/05 13:36:00;;;;;;;29.23;21.63;;;;;;;;;;5034573;28;20169;-80
2020/12/05 13:38:25;;;;;;;29.53;21.83;;;;;;;;;;5033105;28;20173;-80
2020/12/05 13:40:51;;;;;;;33.57;24.80;;;;;;;;;;5032498;28;20304;-80
2020/12/05 13:43:16;;;;;;;26.27;18.83;;;;;;;;;;5034414;28;20169;-80
2020/12/05 13:45:41;;;;;;;28.63;21.93;;;;;;;;;;5034282;28;20619;-80
2020/12/05 13:48:07;;;;;;;41.63;31.03;;;;;;;;;;5034051;28;20175;-80
2020/12/05 13:50:32;;;;;;;30.33;24.07;;;;;;;;;;5033894;28;20542;-80
2020/12/05 13:52:57;;;;;;;29.87;20.90;;;;;;;;;;5034385;28;20180;-80
2020/12/05 13:55:22;;;;;;;31.03;21.83;;;;;;;;;;5034356;28;20259;-80
2020/12/05 13:57:48;;;;;;;33.50;24.03;;;;;;;;;;5033976;28;20224;-81
2020/12/05 14:00:13;;;;;;;43.10;27.50;;;;;;;;;;5033759;28;20365;-80
2020/12/05 14:02:38;;;;;;;40.30;27.43;;;;;;;;;;5034157;28;20168;-80
2020/12/05 14:05:04;;;;;;;40.93;28.63;;;;;;;;;;5033572;28;20172;-79
2020/12/05 14:07:29;;;;;;;41.27;29.57;;;;;;;;;;5033550;28;20184;-80
2020/12/05 14:09:54;;;;;;;36.23;25.30;;;;;;;;;;5033867;28;20181;-80
2020/12/05 14:12:19;;;;;;;39.00;28.70;;;;;;;;;;5033176;28;20569;-80
2020/12/05 14:14:45;;;;;;;38.23;27.23;;;;;;;;;;5031923;28;20263;-80